Time;durP1;ratioP1;P1;durP2;ratioP2;P2;SDS_P1;SDS_P2;PMS_P1;PMS_P2;Temp;Humidity;BMP_temperature;BMP_pressure;BME280_temperature;BME280_humidity;BME280_pressure;Samples;Min_cycle;Max_cycle;Signal;HPM_P1;HPM_P2
2021/08/21 00:02:11;;;;;;;11.20;4.43;;;;;;;10.95;84.37;91071.28;4943864;28;20033;-87
2021/08/21 00:04:49;;;;;;;9.02;4.80;;;;;;;10.84;85.42;91073.53;4976419;28;20034;-86
2021/08/21 00:07:29;;;;;;;8.38;5.30;;;;;;;10.83;86.41;91074.66;4961339;28;20109;-87
2021/08/21 00:10:06;;;;;;;9.30;5.47;;;;;;;10.84;86.34;91068.34;4991654;28;20112;-87
2021/08/21 00:12:47;;;;;;;9.65;5.70;;;;;;;10.89;87.78;91070.00;4991500;28;20065;-87
2021/08/21 00:15:22;;;;;;;10.32;5.22;;;;;;;10.91;87.81;91073.78;4976274;28;20037;-86
2021/08/21 00:17:57;;;;;;;10.73;5.38;;;;;;;10.94;88.04;91069.75;4976039;28;20026;-87
2021/08/21 00:20:31;;;;;;;10.32;5.63;;;;;;;10.92;87.98;91070.09;4975034;28;20076;-87
2021/08/21 00:23:01;;;;;;;9.88;5.78;;;;;;;10.85;88.45;91074.31;4960483;28;20030;-87
2021/08/21 00:25:37;;;;;;;9.63;5.32;;;;;;;10.88;87.98;91074.41;4976228;28;20064;-88
2021/08/21 00:28:16;;;;;;;8.93;5.50;;;;;;;10.96;87.09;91073.56;4960211;28;20394;-86
2021/08/21 00:30:51;;;;;;;7.82;5.22;;;;;;;10.81;86.57;91058.56;4960731;28;20018;-87
2021/08/21 00:33:26;;;;;;;8.98;5.82;;;;;;;10.88;86.56;91069.19;4959690;28;20031;-86
2021/08/21 00:36:04;;;;;;;12.38;5.40;;;;;;;10.75;86.24;91065.84;4976376;28;20026;-88
2021/08/21 00:38:41;;;;;;;9.77;5.20;;;;;;;10.80;85.71;91069.31;4991849;28;20054;-87
2021/08/21 00:41:16;;;;;;;9.77;5.47;;;;;;;10.74;87.21;91068.75;4960335;28;20112;-87
2021/08/21 00:43:43;;;;;;;8.65;5.18;;;;;;;10.70;87.94;91066.03;4960040;28;20061;-87
2021/08/21 00:46:22;;;;;;;7.82;5.28;;;;;;;10.80;88.34;91071.94;4960278;28;20026;-86
2021/08/21 00:48:59;;;;;;;9.30;5.75;;;;;;;10.73;88.44;91064.63;4975944;28;20034;-86
2021/08/21 00:51:34;;;;;;;13.55;5.47;;;;;;;10.72;87.95;91066.50;4942117;28;20022;-87
2021/08/21 00:54:16;;;;;;;8.55;5.15;;;;;;;10.67;87.68;91074.53;4986961;28;20570;-87
2021/08/21 00:56:54;;;;;;;12.60;5.75;;;;;;;10.70;87.61;91068.66;4975357;28;20067;-86
2021/08/21 00:59:39;;;;;;;10.95;5.88;;;;;;;10.74;88.21;91063.53;4954472;28;20114;-86
2021/08/21 01:02:15;;;;;;;9.45;5.28;;;;;;;10.71;88.04;91061.63;4970385;28;20015;-87
2021/08/21 01:05:04;;;;;;;10.82;5.60;;;;;;;10.67;88.34;91063.31;4954418;28;20031;-87
2021/08/21 01:07:41;;;;;;;12.23;5.75;;;;;;;10.69;88.60;91066.38;4971279;28;20507;-87
2021/08/21 01:10:17;;;;;;;8.52;5.72;;;;;;;10.74;88.49;91066.94;4976200;28;20027;-85
2021/08/21 01:13:02;;;;;;;11.10;6.00;;;;;;;10.65;88.54;91055.84;4978837;28;20610;-86
2021/08/21 01:15:38;;;;;;;8.75;5.45;;;;;;;10.68;88.30;91051.84;4979433;28;20026;-86
2021/08/21 01:18:15;;;;;;;11.65;6.45;;;;;;;10.54;88.40;91044.31;4979736;28;20530;-86
2021/08/21 01:20:55;;;;;;;9.90;5.93;;;;;;;10.64;88.29;91059.53;4947067;28;20023;-86
2021/08/21 01:23:33;;;;;;;10.15;5.68;;;;;;;10.58;87.78;91057.47;4978880;28;20034;-86
2021/08/21 01:26:04;;;;;;;11.30;5.90;;;;;;;10.60;88.18;91063.09;4979030;28;20451;-85
2021/08/21 01:28:35;;;;;;;11.98;5.80;;;;;;;10.54;88.55;91052.13;4962515;28;20030;-86
2021/08/21 01:31:10;;;;;;;12.27;6.45;;;;;;;10.60;88.56;91050.06;4977934;28;20018;-86
2021/08/21 01:33:44;;;;;;;8.85;5.60;;;;;;;10.52;88.92;91059.50;4994107;28;20037;-86
2021/08/21 01:36:23;;;;;;;8.57;5.82;;;;;;;10.47;89.22;91057.88;4977678;28;20483;-87
2021/08/21 01:39:03;;;;;;;10.35;5.80;;;;;;;10.50;89.01;91043.44;4963209;28;20038;-86
2021/08/21 01:41:39;;;;;;;9.73;5.60;;;;;;;10.47;88.78;91049.31;4962338;28;20030;-87
2021/08/21 01:44:33;;;;;;;9.38;5.53;;;;;;;10.44;88.59;91050.69;4994047;28;20026;-86
2021/08/21 01:47:07;;;;;;;9.52;5.38;;;;;;;10.48;88.58;91048.97;4995111;28;20399;-87
2021/08/21 01:49:40;;;;;;;;;;;;;;;10.50;88.42;91053.88;4978114;28;20490;-86
2021/08/21 01:52:19;;;;;;;9.13;5.32;;;;;;;10.43;88.42;91054.41;4977994;28;19909;-86
2021/08/21 01:54:58;;;;;;;9.85;6.50;;;;;;;10.45;88.78;91057.41;4962674;28;20113;-86
2021/08/21 01:57:41;;;;;;;10.52;5.90;;;;;;;10.38;88.66;91051.22;4977526;28;20026;-86
2021/08/21 02:00:19;;;;;;;9.07;5.70;;;;;;;10.40;88.36;91055.03;4962531;28;20113;-86
2021/08/21 02:02:57;;;;;;;8.30;5.45;;;;;;;10.38;88.66;91054.59;4977159;28;20498;-87
2021/08/21 02:05:33;;;;;;;10.88;6.20;;;;;;;10.35;88.99;91057.84;4977494;28;20087;-87
2021/08/21 02:08:23;;;;;;;10.60;6.07;;;;;;;10.38;89.58;91049.38;4977109;28;20530;-86
2021/08/21 02:10:52;;;;;;;10.25;5.88;;;;;;;10.34;89.30;91040.69;4979582;28;20030;-86
2021/08/21 02:13:30;;;;;;;8.82;5.63;;;;;;;10.35;89.13;91042.19;4976955;28;20543;-87
2021/08/21 02:16:05;;;;;;;8.73;5.65;;;;;;;10.33;89.44;91044.38;4977352;28;20029;-87
2021/08/21 02:18:45;;;;;;;10.70;6.30;;;;;;;10.36;89.31;91054.16;4993247;28;20018;-87
2021/08/21 02:21:28;;;;;;;10.88;5.97;;;;;;;10.27;89.30;91040.47;4966301;28;20010;-89
2021/08/21 02:24:09;;;;;;;9.05;5.85;;;;;;;10.27;89.43;91041.22;4974627;28;20483;-86
2021/08/21 02:26:47;;;;;;;10.02;5.85;;;;;;;10.30;89.46;91039.81;4978049;28;20027;-86
2021/08/21 02:29:25;;;;;;;9.45;6.22;;;;;;;10.31;89.35;91041.34;4979083;28;20057;-86
2021/08/21 02:32:01;;;;;;;11.00;5.43;;;;;;;10.23;89.65;91037.72;4978278;28;20030;-87
2021/08/21 02:34:39;;;;;;;9.07;5.45;;;;;;;10.28;89.98;91031.56;4978422;28;20033;-86
2021/08/21 02:37:17;;;;;;;10.00;6.10;;;;;;;10.31;89.50;91040.56;4962282;28;20030;-88
2021/08/21 02:39:55;;;;;;;8.20;5.55;;;;;;;10.33;88.88;91041.03;4957238;28;20039;-86
2021/08/21 02:42:32;;;;;;;9.50;6.20;;;;;;;10.31;88.87;91032.75;4957996;28;20082;-86
2021/08/21 02:45:14;;;;;;;9.52;5.82;;;;;;;10.28;88.77;91027.13;4942276;28;20050;-86
2021/08/21 02:47:52;;;;;;;9.27;5.60;;;;;;;10.31;88.63;91030.91;4958107;28;20031;-87
2021/08/21 02:50:31;;;;;;;8.75;5.70;;;;;;;10.37;89.30;91029.63;4942302;28;20022;-87
2021/08/21 02:53:06;;;;;;;12.40;5.95;;;;;;;10.40;88.87;91017.81;4958777;28;20030;-86
2021/08/21 02:55:44;;;;;;;11.20;6.15;;;;;;;10.32;89.10;91024.63;4958463;28;20107;-87
2021/08/21 02:58:20;;;;;;;9.32;6.13;;;;;;;10.34;89.52;91027.66;4975164;28;20034;-87
2021/08/21 03:00:57;;;;;;;8.77;6.03;;;;;;;10.27;90.57;91030.03;4974578;28;20027;-87
2021/08/21 03:03:39;;;;;;;11.00;5.85;;;;;;;10.31;90.09;91025.69;4958548;28;20094;-87
2021/08/21 03:06:18;;;;;;;10.35;6.35;;;;;;;10.27;89.72;91025.59;4977697;28;20023;-87
2021/08/21 03:08:58;;;;;;;13.00;6.20;;;;;;;10.32;90.16;91019.44;4997817;28;20014;-88
2021/08/21 03:11:34;;;;;;;12.93;6.47;;;;;;;10.35;90.52;91023.22;4978938;28;20069;-87
2021/08/21 03:14:06;;;;;;;9.65;6.45;;;;;;;10.27;90.81;91019.63;4940980;28;20030;-86
2021/08/21 03:16:45;;;;;;;10.85;6.68;;;;;;;10.44;90.73;91023.88;4957534;28;20030;-86
2021/08/21 03:19:28;;;;;;;9.63;6.55;;;;;;;10.35;90.41;91031.78;4973050;28;20035;-86
2021/08/21 03:22:08;;;;;;;10.20;6.75;;;;;;;10.25;89.98;91035.59;4956428;28;20034;-87
2021/08/21 03:24:46;;;;;;;8.57;5.53;;;;;;;10.37;90.11;91028.88;4957239;28;20022;-86
2021/08/21 03:27:26;;;;;;;9.82;6.10;;;;;;;10.31;90.23;91035.38;4976949;28;20026;-86
2021/08/21 03:30:04;;;;;;;10.40;6.35;;;;;;;10.18;90.16;91024.16;4975327;28;20105;-86
2021/08/21 03:32:42;;;;;;;12.23;6.30;;;;;;;10.33;90.89;91028.75;4960521;28;20062;-86
2021/08/21 03:35:14;;;;;;;11.82;6.65;;;;;;;10.31;90.68;91025.69;4991956;28;20026;-87
2021/08/21 03:37:55;;;;;;;10.43;6.72;;;;;;;10.22;91.03;91015.34;4959716;28;20038;-86
2021/08/21 03:40:30;;;;;;;14.48;6.78;;;;;;;10.25;91.46;91024.38;4960565;28;20030;-86
2021/08/21 03:43:05;;;;;;;11.93;6.53;;;;;;;10.26;91.36;91026.69;4960579;28;20018;-86
2021/08/21 03:45:48;;;;;;;10.93;7.13;;;;;;;10.22;91.33;91025.03;4960818;28;20026;-87
2021/08/21 03:48:29;;;;;;;11.48;6.70;;;;;;;10.22;91.05;91020.56;4960757;28;20030;-86
2021/08/21 03:51:05;;;;;;;13.35;6.75;;;;;;;10.12;90.99;91020.22;4956852;28;20041;-86
2021/08/21 03:53:36;;;;;;;10.82;6.63;;;;;;;10.13;91.39;91022.50;5070273;23;20049;-88
2021/08/21 03:56:12;;;;;;;12.68;6.57;;;;;;;10.09;90.56;91015.66;5037392;28;20028;-88
2021/08/21 03:58:50;;;;;;;14.75;7.03;;;;;;;10.13;91.40;91017.28;5054362;28;20451;-87
2021/08/21 04:01:29;;;;;;;13.93;7.47;;;;;;;10.11;91.44;91016.84;5038549;28;20025;-88
2021/08/21 04:04:06;;;;;;;13.52;6.93;;;;;;;10.10;91.68;91017.16;5018552;28;20538;-88
2021/08/21 04:06:47;;;;;;;17.95;7.45;;;;;;;10.10;92.40;91019.75;5034319;28;20025;-88
2021/08/21 04:09:29;;;;;;;23.23;7.22;;;;;;;10.11;92.07;91023.91;5034322;28;20493;-88
2021/08/21 04:12:08;;;;;;;17.42;6.78;;;;;;;10.04;92.14;91016.63;5051578;28;20025;-88
2021/08/21 04:14:43;;;;;;;22.38;6.45;;;;;;;10.08;92.06;91019.34;5034249;28;20032;-88
2021/08/21 04:17:27;;;;;;;13.98;6.00;;;;;;;10.16;91.89;91018.50;5034134;28;20031;-87
2021/08/21 04:20:03;;;;;;;11.88;5.70;;;;;;;10.23;90.69;91005.69;5033154;28;20025;-88
2021/08/21 04:22:42;;;;;;;14.68;6.15;;;;;;;10.17;91.23;91009.59;5033785;28;20029;-88
2021/08/21 04:25:21;;;;;;;15.45;6.15;;;;;;;10.07;91.57;91026.41;5034122;28;20032;-88
2021/08/21 04:28:00;;;;;;;15.30;6.70;;;;;;;9.94;91.71;91007.38;5032813;28;20112;-88
2021/08/21 04:30:38;;;;;;;14.00;6.35;;;;;;;9.95;92.01;91016.69;5033345;28;20049;-89
2021/08/21 04:33:15;;;;;;;19.55;6.82;;;;;;;9.98;92.29;91015.28;5017161;28;20029;-87
2021/08/21 04:36:03;;;;;;;23.30;6.50;;;;;;;9.97;91.96;91019.75;5018908;28;20017;-88
2021/08/21 04:38:39;;;;;;;28.52;6.85;;;;;;;9.96;91.78;91020.81;5033315;28;20029;-88
2021/08/21 04:41:16;;;;;;;40.78;6.97;;;;;;;9.95;91.59;91015.94;5017577;28;20397;-88
2021/08/21 04:43:56;;;;;;;9.32;5.43;;;;;;;9.95;91.31;91019.28;5001306;28;20028;-89
2021/08/21 04:46:38;;;;;;;9.20;5.95;;;;;;;10.03;91.30;91021.06;5018399;28;20021;-89
2021/08/21 04:49:14;;;;;;;8.43;6.07;;;;;;;9.95;91.27;91019.28;5035185;28;20048;-88
2021/08/21 04:51:54;;;;;;;8.55;6.35;;;;;;;9.98;91.48;91025.72;5017611;28;20025;-88
2021/08/21 04:54:28;;;;;;;10.65;6.40;;;;;;;10.01;91.29;91027.69;5018061;28;20500;-88
2021/08/21 04:57:06;;;;;;;9.52;6.30;;;;;;;9.98;91.14;91031.66;5018256;28;20029;-89
2021/08/21 04:59:36;;;;;;;12.18;6.97;;;;;;;9.98;92.05;91028.31;5018176;28;20025;-88
2021/08/21 05:02:17;;;;;;;12.88;6.65;;;;;;;10.01;91.90;91038.09;5016943;28;20551;-89
2021/08/21 05:04:59;;;;;;;18.65;7.00;;;;;;;9.99;91.62;91035.78;5018361;28;20463;-88
2021/08/21 05:07:38;;;;;;;10.70;6.85;;;;;;;9.98;91.81;91036.88;5017999;28;20021;-88
2021/08/21 05:10:17;;;;;;;10.90;6.25;;;;;;;10.06;91.72;91037.88;5017488;28;20024;-88
2021/08/21 05:12:54;;;;;;;9.57;6.00;;;;;;;10.05;91.28;91034.50;5018140;28;20024;-88
2021/08/21 05:15:36;;;;;;;10.40;7.03;;;;;;;10.09;91.14;91050.25;5033567;28;20017;-89
2021/08/21 05:18:16;;;;;;;9.05;5.65;;;;;;;10.10;91.05;91046.56;5034995;28;20029;-88
2021/08/21 05:21:05;;;;;;;10.02;6.30;;;;;;;10.18;91.07;91052.78;5018353;28;20072;-88
2021/08/21 05:23:40;;;;;;;9.45;6.13;;;;;;;10.18;90.74;91047.59;5047889;28;20021;-89
2021/08/21 05:26:11;;;;;;;9.07;5.53;;;;;;;10.13;89.04;91048.53;5007919;28;20029;-88
2021/08/21 05:28:50;;;;;;;8.13;5.30;;;;;;;10.02;87.58;91040.34;5012960;28;20573;-89
2021/08/21 05:31:27;;;;;;;13.77;5.93;;;;;;;10.03;87.86;91052.31;5014003;28;20040;-88
2021/08/21 05:34:01;;;;;;;8.40;5.18;;;;;;;10.06;87.99;91040.47;5014509;28;20564;-89
2021/08/21 05:36:35;;;;;;;7.68;5.10;;;;;;;10.12;86.95;91039.19;5015126;28;20026;-88
2021/08/21 05:39:14;;;;;;;8.93;5.75;;;;;;;10.15;88.18;91040.41;4997683;28;20029;-88
2021/08/21 05:41:42;;;;;;;9.88;5.75;;;;;;;10.21;89.58;91044.31;5013305;28;20026;-88
2021/08/21 05:44:22;;;;;;;10.85;7.03;;;;;;;10.28;90.97;91053.19;5013747;28;20032;-88
2021/08/21 05:46:56;;;;;;;10.80;6.95;;;;;;;10.33;91.26;91039.19;5029990;28;20029;-88
2021/08/21 05:49:29;;;;;;;14.45;7.15;;;;;;;10.50;91.68;91046.06;5013455;28;20070;-88
2021/08/21 05:52:08;;;;;;;10.75;6.95;;;;;;;10.65;92.11;91042.06;5013572;28;20029;-89
2021/08/21 05:54:46;;;;;;;12.93;7.25;;;;;;;10.71;92.32;91045.97;5014070;28;20113;-89
2021/08/21 05:57:27;;;;;;;15.20;7.93;;;;;;;10.77;92.64;91052.47;5027679;28;20010;-91
2021/08/21 06:00:02;;;;;;;11.82;7.95;;;;;;;11.04;92.32;91050.31;5043526;28;20009;-90
2021/08/21 06:02:37;;;;;;;13.18;7.80;;;;;;;11.09;92.04;91048.22;5031328;28;20502;-87
2021/08/21 06:05:16;;;;;;;13.65;8.25;;;;;;;11.25;92.31;91045.72;5017613;28;20033;-88
2021/08/21 06:07:51;;;;;;;11.07;7.80;;;;;;;11.26;91.77;91047.25;5016984;28;20029;-88
2021/08/21 06:10:32;;;;;;;14.88;9.40;;;;;;;11.37;92.20;91050.94;5017147;28;20026;-88
2021/08/21 06:13:11;;;;;;;14.05;8.80;;;;;;;11.45;92.22;91057.13;5015890;28;20037;-88
2021/08/21 06:15:46;;;;;;;17.13;9.07;;;;;;;11.60;91.93;91060.91;5033742;28;20025;-88
2021/08/21 06:18:28;;;;;;;14.52;8.80;;;;;;;11.78;91.59;91056.94;5017160;28;20115;-88
2021/08/21 06:21:08;;;;;;;16.48;9.55;;;;;;;11.87;92.00;91060.22;5033142;28;20087;-88
2021/08/21 06:23:45;;;;;;;15.07;9.32;;;;;;;11.97;91.65;91058.97;5033463;28;20053;-88
2021/08/21 06:26:25;;;;;;;16.92;9.13;;;;;;;12.12;91.24;91063.50;5042751;28;20028;-88
2021/08/21 06:29:05;;;;;;;15.27;8.82;;;;;;;12.17;91.87;91058.00;5037362;28;20497;-88
2021/08/21 06:31:40;;;;;;;16.63;9.40;;;;;;;12.39;91.87;91061.94;5019776;28;20119;-88
2021/08/21 06:34:17;;;;;;;19.17;10.73;;;;;;;12.52;91.82;91061.88;5037378;28;20051;-89
2021/08/21 06:36:59;;;;;;;14.93;9.68;;;;;;;12.60;91.66;91066.94;5020181;28;20025;-88
2021/08/21 06:39:40;;;;;;;19.85;10.40;;;;;;;12.80;91.00;91062.56;5020203;28;20040;-88
2021/08/21 06:42:22;;;;;;;22.70;11.60;;;;;;;13.05;92.76;91068.38;5036743;28;20024;-88
2021/08/21 06:44:58;;;;;;;16.40;10.98;;;;;;;13.18;91.86;91066.44;5037422;28;20464;-88
2021/08/21 06:47:35;;;;;;;18.38;11.15;;;;;;;13.27;90.72;91056.56;5019753;28;20027;-88
2021/08/21 06:50:10;;;;;;;20.00;11.80;;;;;;;13.51;91.66;91058.22;5015830;28;20477;-88
2021/08/21 06:52:44;;;;;;;;;;;;;;;13.70;91.15;91062.72;5000532;28;20515;-88
2021/08/21 06:55:16;;;;;;;16.87;11.10;;;;;;;13.85;91.18;91058.53;5035206;28;19992;-88
2021/08/21 06:57:53;;;;;;;22.55;13.75;;;;;;;14.14;91.24;91062.50;5015872;28;20116;-88
2021/08/21 07:00:33;;;;;;;19.63;11.63;;;;;;;14.22;89.51;91058.88;5023801;28;20522;-88
2021/08/21 07:03:00;;;;;;;18.33;11.65;;;;;;;14.49;90.14;91059.75;5036897;28;20032;-88
2021/08/21 07:05:36;;;;;;;18.75;11.63;;;;;;;14.59;89.43;91055.81;5003465;28;20123;-89
2021/08/21 07:08:10;;;;;;;20.92;12.25;;;;;;;14.77;89.06;91061.38;5035766;28;20028;-88
2021/08/21 07:10:51;;;;;;;21.38;11.35;;;;;;;14.88;87.46;91064.94;5059547;28;20025;-89
2021/08/21 07:13:34;;;;;;;21.73;11.60;;;;;;;15.02;88.37;91069.66;5052222;28;20075;-88
2021/08/21 07:16:15;;;;;;;21.33;12.30;;;;;;;15.28;88.86;91058.44;5052188;28;20025;-88
2021/08/21 07:18:51;;;;;;;17.48;11.63;;;;;;;15.41;87.76;91066.88;5035960;28;20024;-88
2021/08/21 07:21:24;;;;;;;18.80;11.27;;;;;;;15.49;87.84;91063.25;5035388;28;20464;-89
2021/08/21 07:24:08;;;;;;;17.70;11.23;;;;;;;15.65;88.74;91061.19;5036344;28;20021;-89
2021/08/21 07:26:46;;;;;;;17.75;10.85;;;;;;;15.80;87.64;91056.19;5032755;28;20029;-88
2021/08/21 07:29:25;;;;;;;18.13;10.15;;;;;;;15.89;85.67;91048.78;5019329;28;20485;-90
2021/08/21 07:31:58;;;;;;;19.60;10.77;;;;;;;16.09;84.93;91062.53;5036400;28;20024;-86
2021/08/21 07:34:38;;;;;;;15.63;9.82;;;;;;;16.23;83.96;91047.69;5019150;28;20020;-87
2021/08/21 07:37:19;;;;;;;17.17;10.65;;;;;;;16.40;82.38;91050.88;5020575;28;20025;-86
2021/08/21 07:39:57;;;;;;;17.92;10.25;;;;;;;16.59;81.83;91058.59;5019858;28;20029;-86
2021/08/21 07:42:38;;;;;;;15.18;9.02;;;;;;;16.77;79.64;91055.41;5034578;28;20520;-89
2021/08/21 07:45:16;;;;;;;13.65;9.02;;;;;;;16.89;77.13;91050.63;5036773;28;20108;-89
2021/08/21 07:47:54;;;;;;;15.65;8.57;;;;;;;17.13;78.24;91065.09;5019445;28;20025;-89
2021/08/21 07:50:32;;;;;;;13.85;8.80;;;;;;;17.23;77.76;91052.41;5035991;28;20028;-88
2021/08/21 07:53:05;;;;;;;16.27;7.90;;;;;;;17.43;74.62;91059.69;5002673;28;20060;-89
2021/08/21 07:55:32;;;;;;;13.25;7.30;;;;;;;17.59;73.67;91056.78;5019215;28;20108;-88
2021/08/21 07:57:59;;;;;;;19.40;7.53;;;;;;;17.71;71.28;91062.91;5014540;28;20321;-87
2021/08/21 08:00:28;;;;;;;12.98;7.47;;;;;;;17.83;70.67;91057.34;5053217;28;20027;-87
2021/08/21 08:02:59;;;;;;;16.90;6.82;;;;;;;18.08;69.98;91063.47;4999478;28;20033;-90
2021/08/21 08:05:29;;;;;;;13.48;7.20;;;;;;;18.10;69.45;91060.50;5016491;28;20049;-87
2021/08/21 08:08:06;;;;;;;15.65;6.72;;;;;;;18.15;69.44;91066.16;5015631;28;20031;-87
2021/08/21 08:10:43;;;;;;;11.02;6.97;;;;;;;18.27;69.19;91064.31;5013274;28;20075;-87
2021/08/21 08:13:23;;;;;;;10.35;6.20;;;;;;;18.34;66.74;91059.09;5018083;28;20041;-87
2021/08/21 08:15:58;;;;;;;11.35;6.10;;;;;;;18.38;67.25;91060.59;5017634;28;20099;-87
2021/08/21 08:18:39;;;;;;;11.00;6.15;;;;;;;18.64;65.69;91056.13;5018266;28;20385;-87
2021/08/21 08:21:14;;;;;;;9.88;6.10;;;;;;;18.72;64.75;91065.59;5018127;28;20104;-87
2021/08/21 08:23:58;;;;;;;9.63;5.53;;;;;;;18.74;64.74;91070.53;5018429;28;20021;-88
2021/08/21 08:26:36;;;;;;;8.38;5.43;;;;;;;18.69;60.79;91062.94;5013825;28;20025;-88
2021/08/21 08:29:08;;;;;;;8.77;5.43;;;;;;;18.73;59.44;91069.00;5018250;28;20128;-88
2021/08/21 08:31:45;;;;;;;9.13;5.45;;;;;;;18.82;60.06;91074.69;5017704;28;20028;-87
2021/08/21 08:34:25;;;;;;;8.48;5.13;;;;;;;18.83;59.90;91079.59;5018120;28;20031;-88
2021/08/21 08:37:06;;;;;;;6.82;4.75;;;;;;;18.97;56.32;91078.84;5033827;28;20132;-89
2021/08/21 08:39:40;;;;;;;12.23;5.20;;;;;;;19.00;58.41;91088.66;5034398;28;20061;-88
2021/08/21 08:42:18;;;;;;;8.25;4.72;;;;;;;19.34;58.19;91088.34;5017179;28;20082;-88
2021/08/21 08:44:59;;;;;;;8.75;4.97;;;;;;;19.29;55.29;91088.69;5001855;28;20029;-88
2021/08/21 08:47:38;;;;;;;11.93;4.70;;;;;;;19.31;58.47;91081.16;5017793;28;20025;-88
2021/08/21 08:50:16;;;;;;;8.57;4.78;;;;;;;19.34;57.88;91081.16;5029610;28;20033;-89
2021/08/21 08:52:53;;;;;;;7.60;4.70;;;;;;;19.45;53.44;91089.09;4982234;28;20037;-88
2021/08/21 08:55:25;;;;;;;8.68;4.43;;;;;;;19.60;57.14;91087.19;4998092;28;20029;-88
2021/08/21 08:58:04;;;;;;;11.65;5.05;;;;;;;19.76;56.98;91090.22;5014477;28;20025;-87
2021/08/21 09:00:38;;;;;;;9.73;5.30;;;;;;;19.83;57.55;91101.94;5005081;28;20373;-88
2021/08/21 09:03:23;;;;;;;7.90;4.68;;;;;;;19.99;56.92;91096.97;5017176;28;20021;-86
2021/08/21 09:06:00;;;;;;;8.40;4.75;;;;;;;19.99;53.87;91108.31;5035338;28;20025;-85
2021/08/21 09:08:35;;;;;;;7.55;4.65;;;;;;;20.00;55.91;91099.25;5018178;28;20032;-87
2021/08/21 09:11:30;;;;;;;14.75;5.50;;;;;;;20.17;57.15;91107.53;5033902;28;20017;-87
2021/08/21 09:14:25;;;;;;;9.25;5.25;;;;;;;20.13;56.62;91101.50;5018443;28;20033;-87
2021/08/21 09:17:16;;;;;;;6.45;4.43;;;;;;;20.23;55.10;91106.00;5018373;28;20115;-87
2021/08/21 09:20:05;;;;;;;10.65;4.95;;;;;;;20.52;54.82;91093.44;5049130;28;20021;-87
2021/08/21 09:22:39;;;;;;;7.18;4.82;;;;;;;20.67;55.16;91096.78;5033107;28;20021;-87
2021/08/21 09:25:15;;;;;;;7.30;5.05;;;;;;;20.57;55.05;91094.97;5033653;28;20052;-87
2021/08/21 09:27:51;;;;;;;10.05;5.03;;;;;;;20.50;53.91;91088.56;5017959;28;20028;-87
2021/08/21 09:30:28;;;;;;;10.52;5.10;;;;;;;20.51;54.17;91094.59;5054072;28;20025;-89
2021/08/21 09:33:13;;;;;;;7.22;4.07;;;;;;;20.64;55.30;91097.59;5064674;28;20005;-90
2021/08/21 09:35:45;;;;;;;;;;;;;;;20.82;56.57;91098.25;5055087;28;20478;-87
2021/08/21 09:38:22;;;;;;;8.30;5.22;;;;;;;20.99;55.49;91092.09;5036914;28;19909;-87
2021/08/21 09:41:00;;;;;;;9.32;4.88;;;;;;;21.08;56.72;91096.22;5020425;28;20071;-88
2021/08/21 09:43:38;;;;;;;12.43;4.82;;;;;;;21.01;50.52;91083.75;5004187;28;20032;-88
2021/08/21 09:46:28;;;;;;;7.00;4.30;;;;;;;21.03;49.69;91096.63;5021340;28;20112;-88
2021/08/21 09:49:10;;;;;;;9.15;4.80;;;;;;;21.00;51.49;91093.59;5020204;28;20025;-89
2021/08/21 09:51:50;;;;;;;7.82;4.97;;;;;;;21.25;52.65;91093.44;5054248;28;20024;-88
2021/08/21 09:54:24;;;;;;;9.93;4.90;;;;;;;21.38;51.03;91091.13;5038378;23;20382;-88
2021/08/21 09:57:03;;;;;;;7.40;4.45;;;;;;;21.06;47.35;91086.00;5039721;28;20031;-87
2021/08/21 09:59:38;;;;;;;7.75;4.38;;;;;;;21.20;50.09;91087.78;5040333;28;20056;-87
2021/08/21 10:02:15;;;;;;;9.90;4.80;;;;;;;21.34;50.83;91095.66;5039803;28;20036;-89
2021/08/21 10:04:54;;;;;;;8.23;4.65;;;;;;;21.23;49.71;91085.13;5075349;28;20049;-87
2021/08/21 10:07:38;;;;;;;7.97;4.25;;;;;;;21.38;51.13;91091.13;5059795;28;20111;-86
2021/08/21 10:10:10;;;;;;;;;;;;;;;21.22;47.77;91088.16;5075915;28;20107;-87
2021/08/21 10:12:43;;;;;;;9.05;4.50;;;;;;;21.39;49.38;91092.63;5076162;28;19907;-88
2021/08/21 10:15:21;;;;;;;6.30;4.70;;;;;;;21.52;46.50;91089.47;5060286;28;20024;-86
2021/08/21 10:17:58;;;;;;;6.53;4.43;;;;;;;21.61;47.78;91087.16;5043569;28;20476;-87
2021/08/21 10:20:40;;;;;;;8.43;4.50;;;;;;;21.64;49.67;91081.06;5060032;28;20615;-87
2021/08/21 10:23:16;;;;;;;7.75;4.53;;;;;;;21.76;47.78;91098.38;5059224;28;20036;-87
2021/08/21 10:26:01;;;;;;;6.70;4.03;;;;;;;21.91;48.05;91095.22;5044086;28;20031;-88
2021/08/21 10:28:47;;;;;;;8.38;4.53;;;;;;;22.01;48.83;91095.50;5059036;28;20026;-88
2021/08/21 10:31:38;;;;;;;8.23;4.35;;;;;;;22.02;49.06;91094.38;5042706;28;20024;-88
2021/08/21 10:34:13;;;;;;;7.03;4.22;;;;;;;22.18;46.48;91092.69;5093855;28;20099;-88
2021/08/21 10:37:05;;;;;;;9.63;4.43;;;;;;;22.13;45.61;91095.03;5059002;28;20023;-87
2021/08/21 10:39:46;;;;;;;7.05;4.15;;;;;;;21.94;45.65;91093.66;5061581;28;20023;-88
2021/08/21 10:42:53;;;;;;;7.30;4.60;;;;;;;22.24;48.27;91092.28;5058732;28;20028;-88
2021/08/21 10:45:48;;;;;;;10.35;4.70;;;;;;;22.10;44.40;91093.16;5046598;28;20036;-88
2021/08/21 10:48:41;;;;;;;7.15;3.80;;;;;;;22.09;44.80;91092.41;5075084;28;20043;-87
2021/08/21 10:51:35;;;;;;;7.45;4.13;;;;;;;22.08;43.20;91096.19;5074441;28;20024;-88
2021/08/21 10:54:03;;;;;;;8.60;4.35;;;;;;;22.10;47.23;91090.50;5093285;28;20031;-88
2021/08/21 10:56:45;;;;;;;6.18;3.88;;;;;;;22.28;46.13;91096.41;5058468;28;20039;-87
2021/08/21 10:59:39;;;;;;;6.93;4.03;;;;;;;22.25;44.81;91083.91;5060179;28;20020;-87
2021/08/21 11:02:35;;;;;;;7.78;4.53;;;;;;;22.41;46.66;91091.34;5078120;28;20492;-88
2021/08/21 11:05:11;;;;;;;6.95;4.22;;;;;;;22.31;44.34;91085.00;5075152;28;20039;-87
2021/08/21 11:07:47;;;;;;;7.13;4.10;;;;;;;22.65;45.18;91090.31;5059302;28;20028;-87
2021/08/21 11:10:30;;;;;;;6.60;3.90;;;;;;;22.46;43.51;91090.88;5058102;28;20149;-88
2021/08/21 11:13:07;;;;;;;5.32;3.67;;;;;;;22.50;42.47;91082.88;5060415;28;20024;-87
2021/08/21 11:15:38;;;;;;;9.55;4.40;;;;;;;22.56;43.26;91089.28;5042603;28;20023;-88
2021/08/21 11:18:27;;;;;;;9.20;4.20;;;;;;;22.50;43.77;91093.50;5075107;28;20024;-88
2021/08/21 11:21:07;;;;;;;8.43;4.32;;;;;;;22.59;44.62;91083.91;5058408;28;20452;-88
2021/08/21 11:23:59;;;;;;;7.78;4.40;;;;;;;22.85;44.35;91098.38;5042718;28;20089;-88
2021/08/21 11:26:31;;;;;;;9.63;4.63;;;;;;;22.50;42.93;91085.53;5059219;28;20477;-87
2021/08/21 11:29:18;;;;;;;8.63;4.30;;;;;;;22.70;43.96;91094.41;5058646;28;20102;-87
2021/08/21 11:32:07;;;;;;;7.28;4.30;;;;;;;22.65;44.08;91085.00;5059391;28;20048;-88
2021/08/21 11:34:45;;;;;;;7.40;4.72;;;;;;;22.68;43.23;91086.06;5075950;28;20027;-88
2021/08/21 11:37:20;;;;;;;9.55;4.63;;;;;;;22.90;44.38;91091.88;5042339;28;20052;-88
2021/08/21 11:40:04;;;;;;;7.22;4.22;;;;;;;22.96;44.78;91086.91;5057776;28;20063;-88
2021/08/21 11:42:56;;;;;;;8.00;4.70;;;;;;;23.00;44.38;91092.91;5058787;28;20103;-87
2021/08/21 11:45:35;;;;;;;8.18;4.70;;;;;;;23.11;45.50;91096.19;5074005;28;20466;-87
2021/08/21 11:48:09;;;;;;;7.63;4.50;;;;;;;23.38;45.52;91088.94;5075358;28;20020;-87
2021/08/21 11:50:47;;;;;;;7.70;4.80;;;;;;;23.36;45.48;91091.28;5057920;28;20024;-88
2021/08/21 11:53:28;;;;;;;10.07;5.35;;;;;;;23.45;44.34;91082.03;5076370;28;20012;-87
2021/08/21 11:56:09;;;;;;;8.07;4.28;;;;;;;23.38;46.25;91098.84;5058864;28;20027;-87
2021/08/21 11:58:50;;;;;;;9.07;4.75;;;;;;;23.41;45.52;91089.31;5043345;28;20028;-87
2021/08/21 12:01:25;;;;;;;9.77;5.10;;;;;;;23.51;47.13;91097.13;5069472;28;20046;-87
2021/08/21 12:06:42;;;;;;;9.75;4.85;;;;;;;22.81;47.15;91095.03;5074762;28;20024;-88
2021/08/21 12:09:22;;;;;;;7.90;4.88;;;;;;;22.98;42.58;91101.28;5058368;28;20391;-85
2021/08/21 12:11:57;;;;;;;7.93;4.97;;;;;;;22.94;43.22;91086.56;5074142;28;20015;-87
2021/08/21 12:14:34;;;;;;;6.50;4.45;;;;;;;23.27;44.64;91103.56;5058352;28;20449;-88
2021/08/21 12:17:08;;;;;;;10.30;4.57;;;;;;;23.29;44.38;91083.41;5057806;28;20074;-87
2021/08/21 12:19:48;;;;;;;7.03;4.18;;;;;;;23.33;40.50;91086.75;5058067;28;20024;-87
2021/08/21 12:22:27;;;;;;;8.23;4.00;;;;;;;23.53;43.37;91088.72;5059446;28;20035;-87
2021/08/21 12:25:02;;;;;;;5.72;4.35;;;;;;;23.82;40.06;91091.75;5058003;28;20446;-87